Terminal Aerodrome Forecast
Issued by NWS Caribou, ME

Current Version | Previous Version | Text Only | Print | Product List | Glossary On
Versions: 1 2 3 4 5 6 7 8 9 10 11 12 13 14
540 FTUS41 KCAR 211738 TAFBGR TAF KBGR 211738Z 2118/2218 28011G22KT P6SM SCT070 FM212300 30006KT P6SM SKC FM220400 VRB03KT P6SM SCT250 FM221300 19008KT P6SM SCT080 BKN250=

USA.gov is the U.S. government's official web portal to all federal, state and local government web resources and services.